Time;durP1;ratioP1;P1;durP2;ratioP2;P2;SDS_P1;SDS_P2;PMS_P1;PMS_P2;Temp;Humidity;BMP_temperature;BMP_pressure;BME280_temperature;BME280_humidity;BME280_pressure;Samples;Min_cycle;Max_cycle;Signal;HPM_P1;HPM_P2
2021/12/11 00:01:16;;;;;;;;;;;;;;;-1.76;100.00;100463.22;5043269;28;20189;-50
2021/12/11 00:03:49;;;;;;;;;;;;;;;-1.74;100.00;100465.78;5035934;28;19971;-51
2021/12/11 00:06:27;;;;;;;;;;;;;;;-1.66;100.00;100468.16;5036413;28;19964;-53
2021/12/11 00:08:55;;;;;;;;;;;;;;;-1.69;100.00;100471.69;5051416;28;19929;-50
2021/12/11 00:11:24;;;;;;;;;;;;;;;-1.70;100.00;100482.88;5040270;28;19929;-53
2021/12/11 00:13:52;;;;;;;;;;;;;;;-1.72;100.00;100484.63;5039843;28;19925;-51
2021/12/11 00:16:22;;;;;;;;;;;;;;;-1.70;100.00;100493.19;5032290;28;19987;-49
2021/12/11 00:18:50;;;;;;;;;;;;;;;-1.73;100.00;100498.41;5042739;28;19931;-51
2021/12/11 00:21:17;;;;;;;;;;;;;;;-1.72;100.00;100498.38;5037101;28;20022;-52
2021/12/11 00:23:45;;;;;;;;;;;;;;;-1.77;100.00;100512.22;5037082;28;19929;-52
2021/12/11 00:26:12;;;;;;;;;;;;;;;-1.80;100.00;100518.31;5035385;28;19944;-52
2021/12/11 00:28:46;;;;;;;;;;;;;;;-1.84;100.00;100515.81;5038194;28;19986;-53
2021/12/11 00:31:13;;;;;;;;;;;;;;;-1.94;100.00;100526.28;5050104;28;19925;-54
2021/12/11 00:33:40;;;;;;;;;;;;;;;-1.95;100.00;100524.59;5040889;28;19929;-53
2021/12/11 00:36:10;;;;;;;;;;;;;;;-1.95;100.00;100529.75;5048498;28;19928;-53
2021/12/11 00:38:37;;;;;;;;;;;;;;;-1.94;100.00;100544.31;5038165;28;19994;-50
2021/12/11 00:41:07;;;;;;;;;;;;;;;-1.97;100.00;100551.28;5044794;28;20080;-52
2021/12/11 00:43:35;;;;;;;;;;;;;;;-1.97;100.00;100552.13;5040701;28;20450;-53
2021/12/11 00:46:05;;;;;;;;;;;;;;;-1.94;100.00;100556.38;5039202;28;19986;-53
2021/12/11 00:48:32;;;;;;;;;;;;;;;-1.98;100.00;100558.16;5040035;28;19925;-48
2021/12/11 00:51:05;;;;;;;;;;;;;;;-2.01;100.00;100563.38;5043632;28;19925;-48
2021/12/11 00:53:36;;;;;;;;;;;;;;;-2.06;100.00;100573.78;5039974;28;19979;-52
2021/12/11 00:56:05;;;;;;;;;;;;;;;-2.10;100.00;100573.81;5043763;28;19939;-48
2021/12/11 00:58:33;;;;;;;;;;;;;;;-2.08;100.00;100579.81;5043579;28;19929;-50
2021/12/11 01:01:02;;;;;;;;;;;;;;;-2.05;100.00;100583.19;5041205;28;19925;-50
2021/12/11 01:03:34;;;;;;;;;;;;;;;-2.05;100.00;100590.91;5040780;28;19925;-51
2021/12/11 01:06:04;;;;;;;;;;;;;;;-2.02;100.00;100595.16;5042482;28;19925;-54
2021/12/11 01:08:32;;;;;;;;;;;;;;;-2.04;100.00;100608.09;5076562;28;19925;-53
2021/12/11 01:11:08;;;;;;;;;;;;;;;-2.10;100.00;100613.34;5040505;28;20291;-49
2021/12/11 01:13:38;;;;;;;;;;;;;;;-2.09;100.00;100621.94;5037358;28;19925;-53
2021/12/11 01:16:11;;;;;;;;;;;;;;;-2.11;100.00;100626.28;5040426;28;19924;-52
2021/12/11 01:18:39;;;;;;;;;;;;;;;-2.11;100.00;100637.41;5034280;28;19929;-51
2021/12/11 01:21:27;;;;;;;;;;;;;;;-2.12;100.00;100637.44;5077522;28;19935;-52
2021/12/11 01:24:29;;;;;;;;;;;;;;;-2.17;100.00;100647.81;5033355;28;19932;-52
2021/12/11 01:26:49;;;;;;;;;;;;;;;-2.19;100.00;100657.31;5050178;28;19925;-52
2021/12/11 01:29:16;;;;;;;;;;;;;;;-2.14;100.00;100659.81;5046081;28;20280;-52
2021/12/11 01:31:43;;;;;;;;;;;;;;;-2.17;100.00;100657.28;5081986;28;19936;-52
2021/12/11 01:34:10;;;;;;;;;;;;;;;-2.19;100.00;100661.63;5046440;28;19929;-51
2021/12/11 01:36:38;;;;;;;;;;;;;;;-2.15;100.00;100665.84;5064665;28;19933;-50
2021/12/11 01:39:09;;;;;;;;;;;;;;;-2.18;100.00;100673.59;5070685;28;19931;-52
2021/12/11 01:41:36;;;;;;;;;;;;;;;-2.19;100.00;100677.09;5049149;28;20389;-53
2021/12/11 01:44:06;;;;;;;;;;;;;;;-2.21;100.00;100687.38;5038070;28;20396;-52
2021/12/11 01:46:32;;;;;;;;;;;;;;;-2.17;100.00;100686.47;5042063;28;20398;-53
2021/12/11 01:49:00;;;;;;;;;;;;;;;-2.11;100.00;100693.28;5046906;28;19945;-53
2021/12/11 01:51:30;;;;;;;;;;;;;;;-2.13;100.00;100697.59;5046839;28;20420;-52
2021/12/11 01:54:03;;;;;;;;;;;;;;;-2.16;100.00;100700.22;5037755;28;19924;-47
2021/12/11 01:56:32;;;;;;;;;;;;;;;-2.14;100.00;100701.91;5036407;28;20296;-50
2021/12/11 01:59:06;;;;;;;;;;;;;;;-2.12;100.00;100707.03;5056484;28;19982;-52
2021/12/11 02:01:40;;;;;;;;;;;;;;;-2.12;100.00;100717.34;5038793;28;19929;-51
2021/12/11 02:04:08;;;;;;;;;;;;;;;-2.11;100.00;100721.63;5040180;28;20292;-54
2021/12/11 02:06:36;;;;;;;;;;;;;;;-2.13;100.00;100726.78;5038360;28;19929;-53
2021/12/11 02:09:22;;;;;;;;;;;;;;;-2.10;100.00;100726.75;5047799;28;19987;-51
2021/12/11 02:12:00;;;;;;;;;;;;;;;-2.14;100.00;100731.97;5040401;28;19925;-50
2021/12/11 02:14:33;;;;;;;;;;;;;;;-2.11;100.00;100735.34;5046143;28;19979;-54
2021/12/11 02:17:02;;;;;;;;;;;;;;;-2.12;100.00;100738.81;5045640;28;20276;-55
2021/12/11 02:19:32;;;;;;;;;;;;;;;-2.09;100.00;100743.06;5082711;28;19925;-51
2021/12/11 02:22:01;;;;;;;;;;;;;;;-2.09;100.00;100748.22;5040451;28;19983;-53
2021/12/11 02:24:51;;;;;;;;;;;;;;;-2.14;100.00;100753.44;5038023;28;20391;-51
2021/12/11 02:27:20;;;;;;;;;;;;;;;-2.13;100.00;100751.72;5040294;28;19979;-53
2021/12/11 02:30:05;;;;;;;;;;;;;;;-2.11;100.00;100765.44;5039491;28;20281;-55
2021/12/11 02:32:39;;;;;;;;;;;;;;;-2.12;100.00;100761.16;5043867;28;19925;-48
2021/12/11 02:35:05;;;;;;;;;;;;;;;-2.13;100.00;100765.44;5050874;28;20410;-53
2021/12/11 02:37:40;;;;;;;;;;;;;;;-2.10;100.00;100770.56;5068301;28;19968;-53
2021/12/11 02:40:07;;;;;;;;;;;;;;;-2.10;100.00;100774.84;5039994;28;19964;-48
2021/12/11 02:42:36;;;;;;;;;;;;;;;-2.10;100.00;100782.59;5033962;28;19925;-54
2021/12/11 02:45:15;;;;;;;;;;;;;;;-2.07;100.00;100780.00;5032570;28;19925;-53
2021/12/11 02:47:44;;;;;;;;;;;;;;;-2.14;100.00;100776.63;5030327;28;19968;-52
2021/12/11 02:50:16;;;;;;;;;;;;;;;-2.22;100.00;100781.88;5032317;28;19925;-54
2021/12/11 02:52:43;;;;;;;;;;;;;;;-2.18;100.00;100784.41;5032043;28;20313;-52
2021/12/11 02:55:30;;;;;;;;;;;;;;;-2.19;100.00;100787.88;5032580;28;20257;-53
2021/12/11 02:57:58;;;;;;;;;;;;;;;-2.25;100.00;100793.94;5031098;28;20374;-53
2021/12/11 03:00:40;;;;;;;;;;;;;;;-2.16;100.00;100790.41;5032293;28;19933;-53
2021/12/11 03:03:08;;;;;;;;;;;;;;;-2.22;100.00;100792.19;5032898;28;19925;-51
2021/12/11 03:05:45;;;;;;;;;;;;;;;-2.24;100.00;100801.66;5034436;28;19986;-57
2021/12/11 03:08:13;;;;;;;;;;;;;;;-2.21;100.00;100801.63;5032200;28;19925;-55
2021/12/11 03:10:41;;;;;;;;;;;;;;;-2.23;100.00;100805.94;5031581;28;20590;-55
2021/12/11 03:13:08;;;;;;;;;;;;;;;-2.32;100.00;100806.06;5030593;28;20297;-53
2021/12/11 03:15:34;;;;;;;;;;;;;;;-2.36;100.00;100817.28;5030934;28;20335;-55
2021/12/11 03:18:02;;;;;;;;;;;;;;;-2.39;100.00;100818.19;5030447;28;19933;-55
2021/12/11 03:20:29;;;;;;;;;;;;;;;-2.34;100.00;100831.00;5063228;28;20304;-54
2021/12/11 03:22:56;;;;;;;;;;;;;;;-2.35;100.00;100839.59;5029976;28;19956;-56
2021/12/11 03:25:24;;;;;;;;;;;;;;;-2.32;100.00;100838.69;5031710;28;19925;-54
2021/12/11 03:27:51;;;;;;;;;;;;;;;-2.32;100.00;100844.69;5030846;28;19988;-56
2021/12/11 03:30:23;;;;;;;;;;;;;;;-2.32;100.00;100857.59;5031528;28;19929;-55
2021/12/11 03:32:50;;;;;;;;;;;;;;;-2.32;100.00;100854.16;5027692;28;19933;-54
2021/12/11 03:35:17;;;;;;;;;;;;;;;-2.31;100.00;100855.88;5031185;28;19994;-54
2021/12/11 03:37:44;;;;;;;;;;;;;;;-2.27;100.00;100853.22;5033818;28;19925;-54
2021/12/11 03:40:11;;;;;;;;;;;;;;;-2.26;100.00;100849.78;5065521;28;19951;-53
2021/12/11 03:42:39;;;;;;;;;;;;;;;-2.33;100.00;100849.88;5049149;28;20384;-54
2021/12/11 03:45:10;;;;;;;;;;;;;;;-2.32;100.00;100854.16;5031229;28;20293;-55
2021/12/11 03:47:39;;;;;;;;;;;;;;;-2.38;100.00;100850.78;5029475;28;19956;-53
2021/12/11 03:50:07;;;;;;;;;;;;;;;-2.26;100.00;100854.94;5062859;28;19982;-56
2021/12/11 03:52:34;;;;;;;;;;;;;;;-2.27;100.00;100854.97;5031273;28;19925;-56
2021/12/11 03:55:04;;;;;;;;;;;;;;;-2.31;100.00;100863.59;5062138;28;19937;-56
2021/12/11 03:57:31;;;;;;;;;;;;;;;-2.33;100.00;100863.63;5032681;28;19929;-56
2021/12/11 03:59:58;;;;;;;;;;;;;;;-2.25;100.00;100856.66;5032353;28;19925;-56
2021/12/11 04:02:26;;;;;;;;;;;;;;;-2.31;100.00;100855.88;5032950;28;19929;-56
2021/12/11 04:04:56;;;;;;;;;;;;;;;-2.36;100.00;100860.22;5030294;28;20249;-56
2021/12/11 04:07:25;;;;;;;;;;;;;;;-2.40;100.00;100860.25;5029613;28;19925;-56
2021/12/11 04:09:51;;;;;;;;;;;;;;;-2.45;100.00;100866.34;5062470;28;20007;-56
2021/12/11 04:12:19;;;;;;;;;;;;;;;-2.41;100.00;100873.16;5029426;28;19936;-55
2021/12/11 04:14:47;;;;;;;;;;;;;;;-2.49;100.00;100891.28;5030237;28;19929;-53
2021/12/11 04:17:14;;;;;;;;;;;;;;;-2.53;100.00;100902.47;5029109;28;20351;-55
2021/12/11 04:19:41;;;;;;;;;;;;;;;-2.47;100.00;100899.81;5033448;28;20566;-56
2021/12/11 04:22:07;;;;;;;;;;;;;;;-2.51;100.00;100911.03;5031635;28;19925;-56
2021/12/11 04:24:35;;;;;;;;;;;;;;;-2.46;100.00;100913.56;5030324;28;19929;-57
2021/12/11 04:27:03;;;;;;;;;;;;;;;-2.47;100.00;100915.28;5029370;28;19925;-56
2021/12/11 04:29:30;;;;;;;;;;;;;;;-2.47;100.00;100912.69;5029875;28;19925;-53
2021/12/11 04:31:57;;;;;;;;;;;;;;;-2.46;100.00;100906.69;5027873;28;20132;-55
2021/12/11 04:34:23;;;;;;;;;;;;;;;-2.45;100.00;100910.13;5030253;28;20303;-56
2021/12/11 04:36:56;;;;;;;;;;;;;;;-2.46;100.00;100905.84;5029466;28;20415;-56
2021/12/11 04:39:24;;;;;;;;;;;;;;;-2.45;100.00;100920.44;5030302;28;19928;-53
2021/12/11 04:42:03;;;;;;;;;;;;;;;-2.43;100.00;100924.69;5032263;28;20269;-57
2021/12/11 04:44:35;;;;;;;;;;;;;;;-2.44;100.00;100928.16;5030282;28;19925;-56
2021/12/11 04:47:07;;;;;;;;;;;;;;;-2.45;100.00;100933.31;5060874;28;20327;-55
2021/12/11 04:49:40;;;;;;;;;;;;;;;-2.48;100.00;100938.47;5031723;28;20277;-55
2021/12/11 04:52:18;;;;;;;;;;;;;;;-2.49;100.00;100936.78;5029873;28;20309;-56
2021/12/11 04:55:30;;;;;;;;;;;;;;;-2.47;100.00;100942.75;5059297;28;19925;-58
2021/12/11 05:03:31;;;;;;;;;;;;;;;-2.40;100.00;100957.28;5033506;28;19929;-53
2021/12/11 05:11:33;;;;;;;;;;;;;;;-2.33;100.00;100973.53;5036726;28;19925;-54
2021/12/11 05:14:00;;;;;;;;;;;;;;;-2.30;100.00;100963.22;5035758;28;20280;-55
2021/12/11 05:16:27;;;;;;;;;;;;;;;-2.28;100.00;100974.34;5032415;28;19956;-54
2021/12/11 05:18:54;;;;;;;;;;;;;;;-2.25;100.00;100975.19;5066889;28;20020;-52
2021/12/11 05:21:20;;;;;;;;;;;;;;;-2.23;100.00;100977.75;5034182;28;19975;-55
2021/12/11 05:23:48;;;;;;;;;;;;;;;-2.11;100.00;100985.34;5033749;28;20454;-55
2021/12/11 05:26:14;;;;;;;;;;;;;;;-2.14;100.00;100994.81;5035190;28;20435;-56
2021/12/11 05:28:41;;;;;;;;;;;;;;;-2.13;100.00;100997.38;5033623;28;20318;-56
2021/12/11 05:31:09;;;;;;;;;;;;;;;-2.12;100.00;101001.69;5030704;28;19925;-56
2021/12/11 05:33:36;;;;;;;;;;;;;;;-2.08;100.00;100994.78;5033242;28;19933;-55
2021/12/11 05:36:03;;;;;;;;;;;;;;;-2.03;100.00;101000.75;5032927;28;19933;-57
2021/12/11 05:38:30;;;;;;;;;;;;;;;-1.97;100.00;101002.41;5038803;28;19979;-55
2021/12/11 05:40:58;;;;;;;;;;;;;;;-1.95;100.00;101005.81;5052673;28;20323;-54
2021/12/11 05:43:25;;;;;;;;;;;;;;;-1.90;100.00;101009.19;5055639;28;19929;-56
2021/12/11 05:45:51;;;;;;;;;;;;;;;-1.89;100.00;101003.19;5055362;28;19944;-53
2021/12/11 05:48:18;;;;;;;;;;;;;;;-1.84;100.00;101011.72;5054786;28;20373;-56
2021/12/11 05:50:46;;;;;;;;;;;;;;;-1.79;100.00;101021.97;5055788;28;19975;-56
2021/12/11 05:53:13;;;;;;;;;;;;;;;-1.78;100.00;101013.38;5087745;28;19925;-52
2021/12/11 05:55:40;;;;;;;;;;;;;;;-1.73;100.00;101021.91;5086208;28;19932;-54
2021/12/11 05:58:10;;;;;;;;;;;;;;;-1.72;100.00;101016.75;5084250;28;19929;-55
2021/12/11 06:00:39;;;;;;;;;;;;;;;-1.67;100.00;101021.00;5052160;28;19925;-54
2021/12/11 06:03:06;;;;;;;;;;;;;;;-1.63;100.00;101023.50;5083864;28;19935;-56
2021/12/11 06:05:33;;;;;;;;;;;;;;;-1.59;100.00;101027.75;5085063;28;19971;-55
2021/12/11 06:08:00;;;;;;;;;;;;;;;-1.57;100.00;101031.19;5051609;28;19983;-51
2021/12/11 06:10:27;;;;;;;;;;;;;;;-1.52;100.00;101032.84;5085113;28;19939;-52
2021/12/11 06:12:55;;;;;;;;;;;;;;;-1.50;100.00;101029.38;5053985;28;19925;-51
2021/12/11 06:15:22;;;;;;;;;;;;;;;-1.47;100.00;101039.66;5052795;28;19935;-50
2021/12/11 06:17:49;;;;;;;;;;;;;;;-1.43;100.00;101033.59;5049247;28;19929;-49
2021/12/11 06:20:17;;;;;;;;;;;;;;;-1.38;100.00;101046.44;5087535;28;19928;-48
2021/12/11 06:22:44;;;;;;;;;;;;;;;-1.35;100.00;101051.53;5054434;28;19928;-53
2021/12/11 06:25:15;;;;;;;;;;;;;;;-1.31;100.00;101065.28;5052333;28;19924;-52
2021/12/11 06:27:42;;;;;;;;;;;;;;;-1.26;100.00;101066.06;5052058;28;19931;-50
2021/12/11 06:30:09;;;;;;;;;;;;;;;-1.22;100.00;101075.47;5054696;28;19967;-52
2021/12/11 06:32:35;;;;;;;;;;;;;;;-1.19;100.00;101078.03;5050808;28;19929;-52
2021/12/11 06:35:05;;;;;;;;;;;;;;;-1.17;100.00;101076.28;5068503;28;19931;-51
2021/12/11 06:37:31;;;;;;;;;;;;;;;-1.12;100.00;101086.53;5053959;28;19925;-53
2021/12/11 06:39:58;;;;;;;;;;;;;;;-1.10;100.00;101084.81;5050937;28;19979;-52
2021/12/11 06:42:25;;;;;;;;;;;;;;;-1.07;100.00;101087.34;5051993;28;19928;-52
2021/12/11 06:44:51;;;;;;;;;;;;;;;-1.03;100.00;101091.59;5083564;28;19928;-50
2021/12/11 06:47:18;;;;;;;;;;;;;;;-0.97;100.00;101095.81;5050346;28;19975;-52
2021/12/11 06:49:45;;;;;;;;;;;;;;;-0.95;100.00;101094.94;5052307;28;19924;-51
2021/12/11 06:52:13;;;;;;;;;;;;;;;-0.91;100.00;101106.91;5051842;28;19925;-50
2021/12/11 06:54:40;;;;;;;;;;;;;;;-0.89;100.00;101105.16;5052268;28;20613;-53
2021/12/11 06:57:06;;;;;;;;;;;;;;;-0.84;100.00;101110.28;5031043;28;19929;-50
2021/12/11 06:59:33;;;;;;;;;;;;;;;-0.82;100.00;101116.25;5046296;28;19929;-48
2021/12/11 07:02:00;;;;;;;;;;;;;;;-0.78;100.00;101120.50;5029536;28;19933;-50
2021/12/11 07:04:27;;;;;;;;;;;;;;;-0.75;100.00;101124.78;5032979;28;20024;-50
2021/12/11 07:06:54;;;;;;;;;;;;;;;-0.72;100.00;101127.34;5031431;28;20323;-48
2021/12/11 07:09:23;;;;;;;;;;;;;;;-0.70;100.00;101131.59;5031670;28;19930;-47
2021/12/11 07:11:51;;;;;;;;;;;;;;;-0.62;100.00;101136.66;5031010;28;19925;-50
2021/12/11 07:14:18;;;;;;;;;;;;;;;-0.60;100.00;101131.47;5063345;28;19925;-48
2021/12/11 07:16:45;;;;;;;;;;;;;;;-0.51;100.00;101134.78;5030000;28;19932;-48
2021/12/11 07:19:12;;;;;;;;;;;;;;;-0.56;100.00;101134.00;5031715;28;19925;-47
2021/12/11 07:21:38;;;;;;;;;;;;;;;-0.56;100.00;101143.47;5032396;28;19971;-48
2021/12/11 07:24:06;;;;;;;;;;;;;;;-0.55;100.00;101148.63;5031384;28;19979;-52
2021/12/11 07:26:34;;;;;;;;;;;;;;;-0.53;100.00;101144.28;5033139;28;19925;-48
2021/12/11 07:29:03;;;;;;;;;;;;;;;-0.49;100.00;101159.75;5033771;28;19925;-49
2021/12/11 07:31:30;;;;;;;;;;;;;;;-0.49;100.00;101164.91;5032721;28;20312;-52
2021/12/11 07:33:57;;;;;;;;;;;;;;;-0.36;100.00;101171.63;5062422;28;19983;-49
2021/12/11 07:36:24;;;;;;;;;;;;;;;-0.31;100.00;101174.13;5031406;28;20274;-51
2021/12/11 07:38:51;;;;;;;;;;;;;;;-0.35;100.00;101176.75;5030927;28;19956;-51
2021/12/11 07:41:18;;;;;;;;;;;;;;;-0.29;100.00;101175.81;5033520;28;19925;-50
2021/12/11 07:43:45;;;;;;;;;;;;;;;-0.28;100.00;101190.47;5033992;28;19925;-48
2021/12/11 07:46:13;;;;;;;;;;;;;;;-0.29;100.00;101195.66;5033535;28;19925;-50
2021/12/11 07:48:41;;;;;;;;;;;;;;;-0.31;100.00;101187.94;5033660;28;19929;-48
2021/12/11 07:51:09;;;;;;;;;;;;;;;-0.31;100.00;101193.09;5033423;28;19929;-51
2021/12/11 07:53:35;;;;;;;;;;;;;;;-0.28;100.00;101193.03;5065409;28;19925;-52
2021/12/11 07:56:02;;;;;;;;;;;;;;;-0.12;100.00;101193.69;5040457;28;19932;-51
2021/12/11 07:58:32;;;;;;;;;;;;;;;-0.16;100.00;101202.34;5051351;28;19932;-51
2021/12/11 08:00:59;;;;;;;;;;;;;;;-0.17;100.00;101211.81;5052170;28;19932;-51
2021/12/11 08:03:26;;;;;;;;;;;;;;;-0.16;100.00;101212.69;5052151;28;20023;-48
2021/12/11 08:05:54;;;;;;;;;;;;;;;-0.20;100.00;101222.22;5050922;28;19952;-50
2021/12/11 08:08:22;;;;;;;;;;;;;;;-0.15;100.00;101219.59;5050617;28;19928;-52
2021/12/11 08:10:50;;;;;;;;;;;;;;;-0.16;100.00;101225.63;5050231;28;20341;-52
2021/12/11 08:13:17;;;;;;;;;;;;;;;-0.13;100.00;101232.50;5050477;28;19931;-48
2021/12/11 08:15:44;;;;;;;;;;;;;;;-0.09;100.00;101236.75;5080870;28;19951;-52
2021/12/11 08:18:11;;;;;;;;;;;;;;;-0.07;100.00;101237.56;5041526;28;20043;-51
2021/12/11 08:20:39;;;;;;;;;;;;;;;-0.04;100.00;101250.44;5038873;28;20006;-50
2021/12/11 08:23:06;;;;;;;;;;;;;;;0.02;100.00;101260.69;5038629;28;19929;-51
2021/12/11 08:25:33;;;;;;;;;;;;;;;0.01;100.00;101251.22;5071649;28;19925;-50
2021/12/11 08:28:00;;;;;;;;;;;;;;;0.04;100.00;101255.50;5051953;28;20380;-51
2021/12/11 08:30:28;;;;;;;;;;;;;;;0.03;100.00;101262.41;5049827;28;19925;-50
2021/12/11 08:32:55;;;;;;;;;;;;;;;0.05;100.00;101262.41;5048486;28;19951;-55
2021/12/11 08:35:22;;;;;;;;;;;;;;;0.10;100.00;101273.53;5084626;28;20032;-54
2021/12/11 08:37:50;;;;;;;;;;;;;;;0.11;100.00;101270.91;5048892;28;19935;-51
2021/12/11 08:40:19;;;;;;;;;;;;;;;0.12;100.00;101277.81;5050046;28;19979;-49
2021/12/11 08:42:46;;;;;;;;;;;;;;;0.15;100.00;101280.34;5050972;28;19951;-51
2021/12/11 08:45:21;;;;;;;;;;;;;;;0.17;100.00;101288.91;5052714;28;19924;-49
2021/12/11 08:47:49;;;;;;;;;;;;;;;0.20;100.00;101279.41;5052750;28;20474;-51
2021/12/11 08:50:21;;;;;;;;;;;;;;;0.24;100.00;101283.66;5052711;28;19947;-48
2021/12/11 08:52:49;;;;;;;;;;;;;;;0.26;100.00;101293.13;5051292;28;19935;-52
2021/12/11 08:55:18;;;;;;;;;;;;;;;0.30;100.00;101288.72;5066474;28;19925;-50
2021/12/11 08:57:45;;;;;;;;;;;;;;;0.32;100.00;101289.59;5050072;28;20272;-53
2021/12/11 09:00:21;;;;;;;;;;;;;;;0.32;100.00;101293.00;5081939;28;19929;-51
2021/12/11 09:03:10;;;;;;;;;;;;;;;0.38;100.00;101301.56;5048425;28;19929;-50
2021/12/11 09:05:40;;;;;;;;;;;;;;;0.44;100.00;101301.50;5049587;28;20368;-52
2021/12/11 09:08:12;;;;;;;;;;;;;;;0.51;100.00;101313.44;5049622;28;19950;-47
2021/12/11 09:10:41;;;;;;;;;;;;;;;0.53;100.00;101310.81;5049495;28;20366;-47
2021/12/11 09:13:13;;;;;;;;;;;;;;;0.56;100.00;101318.53;5049194;28;19932;-48
2021/12/11 09:15:59;;;;;;;;;;;;;;;0.62;100.00;101316.72;5048242;28;20438;-51
2021/12/11 09:18:28;;;;;;;;;;;;;;;0.71;100.00;101315.72;5049490;28;19932;-49
2021/12/11 09:20:57;;;;;;;;;;;;;;;0.70;100.00;101319.19;5051636;28;19924;-49
2021/12/11 09:23:50;;;;;;;;;;;;;;;0.77;100.00;101333.72;5052106;28;19998;-50
2021/12/11 09:26:30;;;;;;;;;;;;;;;0.76;100.00;101333.75;5047722;28;19924;-51
2021/12/11 09:28:59;;;;;;;;;;;;;;;0.81;100.00;101343.16;5050978;28;19929;-48
2021/12/11 09:31:26;;;;;;;;;;;;;;;0.83;100.00;101345.72;5052193;28;20023;-48
2021/12/11 09:33:58;;;;;;;;;;;;;;;0.93;100.00;101343.84;5067669;28;19925;-50
2021/12/11 09:36:30;;;;;;;;;;;;;;;0.95;100.00;101355.88;5050698;28;19931;-49
2021/12/11 09:39:00;;;;;;;;;;;;;;;0.98;100.00;101366.19;5052030;28;20298;-53
2021/12/11 09:41:27;;;;;;;;;;;;;;;1.03;100.00;101373.88;5052367;28;20388;-54
2021/12/11 09:43:58;;;;;;;;;;;;;;;1.07;100.00;101362.59;5054652;28;19996;-50
2021/12/11 09:46:26;;;;;;;;;;;;;;;1.11;100.00;101381.53;5055851;28;19925;-52
2021/12/11 09:48:54;;;;;;;;;;;;;;;1.13;100.00;101385.81;5052083;28;20346;-53
2021/12/11 09:51:25;;;;;;;;;;;;;;;1.17;100.00;101392.66;5053673;28;19924;-50
2021/12/11 09:53:54;;;;;;;;;;;;;;;1.21;100.00;101397.78;5054334;28;19936;-51
2021/12/11 09:56:26;;;;;;;;;;;;;;;1.24;100.00;101392.53;5052592;28;19929;-51
2021/12/11 09:58:53;;;;;;;;;;;;;;;1.28;100.00;101410.59;5055613;28;19925;-52
2021/12/11 10:01:25;;;;;;;;;;;;;;;1.32;100.00;101416.56;5054639;28;19925;-53
2021/12/11 10:03:55;;;;;;;;;;;;;;;1.34;100.00;101404.47;5086192;28;19974;-51
2021/12/11 10:06:40;;;;;;;;;;;;;;;1.39;100.00;101407.81;5084482;28;19925;-51
2021/12/11 10:09:17;;;;;;;;;;;;;;;1.43;100.00;101411.19;5052395;28;19983;-50
2021/12/11 10:12:04;;;;;;;;;;;;;;;1.47;100.00;101412.84;5083091;28;19971;-56
2021/12/11 10:14:36;;;;;;;;;;;;;;;1.52;100.00;101435.22;5053191;28;19932;-55
2021/12/11 10:17:07;;;;;;;;;;;;;;;1.54;100.00;101437.81;5051117;28;19956;-55
2021/12/11 10:19:34;;;;;;;;;;;;;;;1.59;100.00;101445.50;5053112;28;20012;-55
2021/12/11 10:22:20;;;;;;;;;;;;;;;1.67;100.00;101448.78;5084424;28;19932;-56
2021/12/11 10:24:47;;;;;;;;;;;;;;;1.71;100.00;101445.25;5052357;28;19955;-52
2021/12/11 10:27:15;;;;;;;;;;;;;;;1.76;100.00;101453.81;5084606;28;19925;-53
2021/12/11 10:29:42;;;;;;;;;;;;;;;1.78;100.00;101448.59;5086613;28;19932;-50
2021/12/11 10:32:10;;;;;;;;;;;;;;;1.82;100.00;101453.69;5087097;28;19925;-48
2021/12/11 10:34:38;;;;;;;;;;;;;;;1.85;100.00;101453.66;5054701;28;19929;-52
2021/12/11 10:37:07;;;;;;;;;;;;;;;1.92;100.00;101459.56;5051946;28;19974;-52
2021/12/11 10:39:35;;;;;;;;;;;;;;;2.00;100.00;101464.59;5052442;28;20409;-51
2021/12/11 10:42:02;;;;;;;;;;;;;;;2.00;100.00;101456.81;5053601;28;19971;-52
2021/12/11 10:44:30;;;;;;;;;;;;;;;2.03;100.00;101467.13;5054853;28;19932;-51
2021/12/11 10:47:05;;;;;;;;;;;;;;;2.07;100.00;101467.94;5053897;28;19960;-53
2021/12/11 10:49:32;;;;;;;;;;;;;;;2.12;100.00;101468.72;5052256;28;19929;-49
2021/12/11 10:52:01;;;;;;;;;;;;;;;2.16;100.00;101473.78;5053205;28;19979;-52
2021/12/11 10:54:28;;;;;;;;;;;;;;;2.21;100.00;101476.31;5052506;28;19976;-48
2021/12/11 10:56:55;;;;;;;;;;;;;;;2.27;100.00;101470.13;5051591;28;19925;-48
2021/12/11 10:59:23;;;;;;;;;;;;;;;2.28;100.00;101471.84;5051857;28;20307;-50
2021/12/11 11:02:08;;;;;;;;;;;;;;;2.31;100.00;101477.81;5053164;28;20315;-49
2021/12/11 11:04:40;;;;;;;;;;;;;;;2.39;100.00;101482.00;5052089;28;20028;-53
2021/12/11 11:07:06;;;;;;;;;;;;;;;2.44;100.00;101490.53;5051873;28;19932;-52
2021/12/11 11:09:33;;;;;;;;;;;;;;;2.49;100.00;101502.53;5051797;28;19928;-50
2021/12/11 11:12:02;;;;;;;;;;;;;;;2.51;100.00;101499.94;5085506;28;20020;-53
2021/12/11 11:14:30;;;;;;;;;;;;;;;2.54;100.00;101500.72;5051440;28;19971;-56
2021/12/11 11:16:58;;;;;;;;;;;;;;;2.63;100.00;101512.66;5081700;28;19929;-57
2021/12/11 11:19:26;;;;;;;;;;;;;;;2.62;100.00;101510.94;5050345;28;19925;-56
2021/12/11 11:21:57;;;;;;;;;;;;;;;2.64;100.00;101516.94;5066544;28;19987;-56
2021/12/11 11:24:28;;;;;;;;;;;;;;;2.64;100.00;101524.75;5082783;28;19925;-56
2021/12/11 11:26:55;;;;;;;;;;;;;;;2.64;100.00;101516.09;5051191;28;20361;-56
2021/12/11 11:29:23;;;;;;;;;;;;;;;2.67;100.00;101526.41;5051067;28;20355;-56
2021/12/11 11:31:51;;;;;;;;;;;;;;;2.72;100.00;101532.38;5048416;28;19928;-55
2021/12/11 11:34:18;;;;;;;;;;;;;;;2.74;100.00;101535.81;5051828;28;19925;-56
2021/12/11 11:36:46;;;;;;;;;;;;;;;2.70;100.00;101549.75;5053921;28;19966;-58
2021/12/11 11:39:17;;;;;;;;;;;;;;;2.77;100.00;101550.44;5051556;28;19988;-51
2021/12/11 11:41:45;;;;;;;;;;;;;;;2.75;100.00;101550.50;5050793;28;19946;-56
2021/12/11 11:44:14;;;;;;;;;;;;;;;2.74;100.00;101556.59;5082812;28;19932;-57
2021/12/11 11:46:40;;;;;;;;;;;;;;;2.77;100.00;101556.53;5048907;28;19929;-57
2021/12/11 11:49:08;;;;;;;;;;;;;;;2.77;100.00;101555.66;5065945;28;19925;-57
2021/12/11 11:51:36;;;;;;;;;;;;;;;2.82;100.00;101559.88;5083796;28;19932;-54
2021/12/11 11:54:04;;;;;;;;;;;;;;;2.83;100.00;101558.13;5052664;28;19925;-51
2021/12/11 11:56:32;;;;;;;;;;;;;;;2.87;100.00;101552.81;5050487;28;19924;-51
2021/12/11 11:58:59;;;;;;;;;;;;;;;2.86;100.00;101565.84;5082450;28;19929;-53
2021/12/11 12:01:28;;;;;;;;;;;;;;;2.86;100.00;101571.06;5044970;28;19924;-54
2021/12/11 12:03:56;;;;;;;;;;;;;;;2.88;100.00;101571.88;5048170;28;19932;-53
2021/12/11 12:06:25;;;;;;;;;;;;;;;2.92;100.00;101576.13;5084880;28;19925;-53
2021/12/11 12:08:53;;;;;;;;;;;;;;;2.93;100.00;101572.66;5051787;28;20319;-53
2021/12/11 12:11:20;;;;;;;;;;;;;;;2.97;100.00;101578.63;5081782;28;20486;-50
2021/12/11 12:13:47;;;;;;;;;;;;;;;2.92;100.00;101580.44;5049654;28;20315;-53
2021/12/11 12:16:27;;;;;;;;;;;;;;;2.95;100.00;101585.59;5077446;28;19980;-56
2021/12/11 12:18:53;;;;;;;;;;;;;;;2.92;100.00;101590.84;5051981;28;19998;-57
2021/12/11 12:21:20;;;;;;;;;;;;;;;2.99;100.00;101600.25;5081639;28;19932;-56
2021/12/11 12:23:47;;;;;;;;;;;;;;;3.01;100.00;101599.31;5049991;28;20364;-57
2021/12/11 12:26:17;;;;;;;;;;;;;;;3.02;100.00;101608.81;5049133;28;20039;-57
2021/12/11 12:28:44;;;;;;;;;;;;;;;2.99;100.00;101606.28;5081244;28;19928;-57
2021/12/11 12:31:13;;;;;;;;;;;;;;;2.99;100.00;101600.25;5080295;28;19929;-57
2021/12/11 12:33:41;;;;;;;;;;;;;;;2.83;100.00;101605.75;5049262;28;19935;-56
2021/12/11 12:36:08;;;;;;;;;;;;;;;2.91;100.00;101620.34;5083017;28;19924;-55
2021/12/11 12:38:36;;;;;;;;;;;;;;;2.85;100.00;101614.38;5053038;28;19925;-56
2021/12/11 12:41:11;;;;;;;;;;;;;;;2.85;100.00;101619.56;5049487;28;19925;-53
2021/12/11 12:46:23;;;;;;;;;;;;;;;2.95;100.00;101617.63;5052776;28;19924;-56
2021/12/11 12:48:50;;;;;;;;;;;;;;;2.96;100.00;101621.06;5053056;28;20390;-56
2021/12/11 12:51:17;;;;;;;;;;;;;;;3.04;100.00;101625.25;5049690;28;19974;-51
2021/12/11 12:53:44;;;;;;;;;;;;;;;3.08;100.00;101622.56;5049907;28;19947;-50
2021/12/11 12:56:16;;;;;;;;;;;;;;;2.98;100.00;101614.97;5047566;28;20406;-53